createdAt,value
2023-06-02T00:00:51.369Z,3.75
2023-06-02T00:03:22.037Z,3.28
2023-06-02T00:05:54.768Z,3.65
2023-06-02T00:08:24.901Z,3.83
2023-06-02T00:10:54.993Z,3.67
2023-06-02T00:13:26.083Z,3.80
2023-06-02T00:15:56.432Z,3.92
2023-06-02T00:18:26.532Z,3.92
2023-06-02T00:21:01.157Z,3.97
2023-06-02T00:23:32.189Z,4.80
2023-06-02T00:26:02.815Z,4.07
2023-06-02T00:28:33.399Z,3.97
2023-06-02T00:31:03.554Z,4.47
2023-06-02T00:33:33.676Z,3.67
2023-06-02T00:36:06.977Z,3.72
2023-06-02T00:38:37.216Z,3.78
2023-06-02T00:41:07.457Z,4.13
2023-06-02T00:43:37.448Z,3.92
2023-06-02T00:46:07.405Z,3.90
2023-06-02T00:48:37.439Z,4.40
2023-06-02T00:51:10.150Z,4.22
2023-06-02T00:53:41.829Z,4.47
2023-06-02T00:56:12.232Z,3.92
2023-06-02T00:58:42.663Z,4.00
2023-06-02T01:01:13.731Z,4.03
2023-06-02T01:03:45.351Z,4.63
2023-06-02T01:06:24.508Z,3.85
2023-06-02T01:08:55.220Z,4.50
2023-06-02T01:11:25.129Z,4.32
2023-06-02T01:13:55.841Z,4.25
2023-06-02T01:16:28.339Z,4.80
2023-06-02T01:19:00.688Z,4.15
2023-06-02T01:21:38.735Z,3.90
2023-06-02T01:24:15.981Z,4.60
2023-06-02T01:26:45.954Z,4.65
2023-06-02T01:29:15.870Z,4.18
2023-06-02T01:31:50.856Z,4.50
2023-06-02T01:34:32.065Z,3.83
2023-06-02T01:37:04.379Z,5.00
2023-06-02T01:39:38.085Z,4.93
2023-06-02T01:42:09.298Z,4.78
2023-06-02T01:44:40.922Z,4.55
2023-06-02T01:47:11.491Z,4.25
2023-06-02T01:49:41.498Z,4.65
2023-06-02T01:52:11.557Z,4.28
2023-06-02T01:54:45.201Z,4.50
2023-06-02T01:57:15.085Z,4.30
2023-06-02T01:59:45.055Z,4.40
2023-06-02T02:02:15.009Z,4.80
2023-06-02T02:04:45.282Z,5.20
2023-06-02T02:07:20.837Z,4.45
2023-06-02T02:09:53.433Z,4.80
2023-06-02T02:12:23.371Z,4.63
2023-06-02T02:14:57.746Z,4.88
2023-06-02T02:17:29.620Z,4.55
2023-06-02T02:19:59.621Z,4.35
2023-06-02T02:22:29.573Z,4.57
2023-06-02T02:25:02.538Z,4.57
2023-06-02T02:27:33.286Z,5.28
2023-06-02T02:30:03.934Z,4.60
2023-06-02T02:32:34.609Z,4.72
2023-06-02T02:35:05.234Z,5.00
2023-06-02T02:37:45.798Z,5.30
2023-06-02T02:40:20.156Z,4.85
2023-06-02T02:42:50.054Z,4.85
2023-06-02T02:45:20.101Z,4.97
2023-06-02T02:47:50.039Z,5.53
2023-06-02T02:50:20.035Z,4.57
2023-06-02T02:52:49.944Z,5.13
2023-06-02T02:55:23.891Z,4.80
2023-06-02T02:57:55.217Z,4.57
2023-06-02T03:00:25.253Z,4.90
2023-06-02T03:02:55.924Z,4.65
2023-06-02T03:05:26.345Z,4.70
2023-06-02T03:07:56.440Z,5.38
2023-06-02T03:10:28.904Z,5.13
2023-06-02T03:12:58.863Z,6.03
2023-06-02T03:15:28.760Z,5.28
2023-06-02T03:18:00.492Z,5.03
2023-06-02T03:20:30.785Z,5.40
2023-06-02T03:23:00.706Z,5.20
2023-06-02T03:25:33.177Z,5.78
2023-06-02T03:28:03.600Z,5.88
2023-06-02T03:30:33.566Z,5.63
2023-06-02T03:33:03.472Z,6.30
2023-06-02T03:35:33.476Z,6.20
2023-06-02T03:38:06.387Z,6.07
2023-06-02T03:40:39.016Z,6.20
2023-06-02T03:43:08.881Z,6.32
2023-06-02T03:45:38.796Z,6.10
2023-06-02T03:48:09.373Z,6.10
2023-06-02T03:50:40.049Z,6.00
2023-06-02T03:53:09.934Z,5.60
2023-06-02T03:55:42.416Z,6.28
2023-06-02T03:58:13.901Z,5.78
2023-06-02T04:00:45.315Z,5.70
2023-06-02T04:03:15.197Z,6.15
2023-06-02T04:05:45.588Z,6.13
2023-06-02T04:08:15.644Z,6.28
2023-06-02T04:10:48.198Z,5.78
2023-06-02T04:13:18.216Z,6.00
2023-06-02T04:15:48.093Z,6.20
2023-06-02T04:18:18.000Z,6.03
2023-06-02T04:20:48.406Z,5.70
2023-06-02T04:23:18.494Z,6.38
2023-06-02T04:25:51.113Z,6.15
2023-06-02T04:28:20.981Z,6.28
2023-06-02T04:30:52.453Z,6.40
2023-06-02T04:33:22.974Z,6.50
2023-06-02T04:35:52.867Z,6.75
2023-06-02T04:38:22.871Z,6.97
2023-06-02T04:40:57.590Z,6.55
2023-06-02T04:43:27.517Z,6.55
2023-06-02T04:45:58.065Z,6.50
2023-06-02T04:48:28.039Z,6.63
2023-06-02T04:50:57.966Z,6.20
2023-06-02T04:53:28.004Z,6.80
2023-06-02T04:56:00.517Z,6.40
2023-06-02T04:58:30.520Z,6.47
2023-06-02T05:01:00.462Z,6.20
2023-06-02T05:03:30.382Z,6.60
2023-06-02T05:06:00.412Z,6.28
2023-06-02T05:08:30.420Z,6.53
2023-06-02T05:11:03.252Z,6.55
2023-06-02T05:13:33.227Z,6.15
2023-06-02T05:16:04.323Z,6.68
2023-06-02T05:18:34.899Z,6.18
2023-06-02T05:21:04.888Z,5.88
2023-06-02T05:23:34.806Z,6.03
2023-06-02T05:26:07.256Z,6.63
2023-06-02T05:28:37.332Z,6.55
2023-06-02T05:31:07.311Z,6.90
2023-06-02T05:33:37.215Z,6.68
2023-06-02T05:36:07.458Z,7.18
2023-06-02T05:38:37.401Z,6.28
2023-06-02T05:41:09.957Z,6.65
2023-06-02T05:43:39.845Z,5.80
2023-06-02T05:46:09.754Z,5.78
2023-06-02T05:48:39.862Z,6.60
2023-06-02T05:51:09.811Z,6.90
2023-06-02T05:53:39.691Z,6.50
2023-06-02T05:56:12.389Z,6.68
2023-06-02T05:58:42.853Z,7.03
2023-06-02T06:01:12.926Z,6.78
2023-06-02T06:03:42.915Z,6.50
2023-06-02T06:06:12.941Z,6.70
2023-06-02T06:08:42.842Z,6.07
2023-06-02T06:11:15.323Z,6.72
2023-06-02T06:13:45.170Z,6.43
2023-06-02T06:16:15.167Z,6.90
2023-06-02T06:18:45.381Z,6.90
2023-06-02T06:21:15.334Z,6.18
2023-06-02T06:23:45.300Z,7.38
2023-06-02T06:26:17.739Z,6.00
2023-06-02T06:28:47.732Z,7.10
2023-06-02T06:31:17.686Z,6.88
2023-06-02T06:33:47.789Z,6.43
2023-06-02T06:36:17.979Z,6.43
2023-06-02T06:38:47.962Z,6.20
2023-06-02T06:41:22.892Z,6.68
2023-06-02T06:43:52.936Z,6.60
2023-06-02T06:46:22.930Z,6.30
2023-06-02T06:48:52.975Z,6.40
2023-06-02T06:51:23.063Z,6.13
2023-06-02T06:53:52.964Z,6.50
2023-06-02T06:56:26.475Z,5.68
2023-06-02T06:58:56.385Z,6.00
2023-06-02T07:01:26.290Z,6.50
2023-06-02T07:03:56.384Z,5.72
2023-06-02T07:06:26.830Z,6.70
2023-06-02T07:08:56.749Z,6.68
2023-06-02T07:11:29.703Z,6.88
2023-06-02T07:14:14.805Z,6.60
2023-06-02T07:16:49.457Z,6.88
2023-06-02T07:19:20.647Z,6.78
2023-06-02T07:21:50.813Z,6.35
2023-06-02T07:24:21.421Z,6.25
2023-06-02T07:26:53.990Z,6.18
2023-06-02T07:29:23.855Z,6.20
2023-06-02T07:31:54.074Z,7.20
2023-06-02T07:34:24.189Z,6.60
2023-06-02T07:36:55.911Z,6.22
2023-06-02T07:39:26.549Z,6.63
2023-06-02T07:41:59.109Z,6.40
2023-06-02T07:44:28.999Z,6.38
2023-06-02T07:46:59.022Z,6.13
2023-06-02T07:49:29.097Z,6.00
2023-06-02T07:51:59.082Z,6.40
2023-06-02T07:54:28.996Z,6.20
2023-06-02T07:57:01.532Z,7.05
2023-06-02T07:59:31.560Z,6.40
2023-06-02T08:02:01.587Z,6.25
2023-06-02T08:04:31.831Z,6.13
2023-06-02T08:07:01.944Z,6.15
2023-06-02T08:09:32.083Z,6.20
2023-06-02T08:12:04.565Z,6.13
2023-06-02T08:14:34.838Z,6.43
2023-06-02T08:17:04.750Z,6.63
2023-06-02T08:19:34.832Z,6.88
2023-06-02T08:22:05.118Z,7.35
2023-06-02T08:24:37.993Z,6.70
2023-06-02T08:27:11.172Z,7.07
2023-06-02T08:29:41.045Z,7.07
2023-06-02T08:32:11.209Z,7.15
2023-06-02T08:34:42.765Z,6.68
2023-06-02T08:37:16.661Z,6.60
2023-06-02T08:39:46.845Z,6.65
2023-06-02T08:42:20.078Z,6.95
2023-06-02T08:44:50.032Z,7.70
2023-06-02T08:47:23.547Z,7.30
2023-06-02T08:49:53.916Z,7.68
2023-06-02T08:52:27.041Z,7.18
2023-06-02T08:54:59.080Z,7.50
2023-06-02T08:57:31.573Z,7.22
2023-06-02T09:00:01.595Z,6.78
2023-06-02T09:02:31.631Z,7.18
2023-06-02T09:05:04.339Z,7.22
2023-06-02T09:07:34.368Z,7.38
2023-06-02T09:10:05.130Z,7.50
2023-06-02T09:12:50.966Z,6.47
2023-06-02T09:15:21.117Z,7.00
2023-06-02T09:17:51.139Z,7.07
2023-06-02T09:20:21.160Z,7.00
2023-06-02T09:22:57.978Z,6.53
2023-06-02T09:25:29.685Z,6.40
2023-06-02T09:28:03.632Z,6.32
2023-06-02T09:30:33.590Z,6.10
2023-06-02T09:33:05.319Z,6.80
2023-06-02T09:35:41.665Z,6.80
2023-06-02T09:38:13.899Z,6.90
2023-06-02T09:40:45.509Z,6.80
2023-06-02T09:43:20.738Z,7.30
2023-06-02T09:46:05.695Z,6.70
2023-06-02T09:48:36.796Z,6.47
2023-06-02T09:51:25.039Z,7.40
2023-06-02T09:53:57.205Z,6.22
2023-06-02T09:56:30.695Z,5.95
2023-06-02T09:59:04.582Z,6.68
2023-06-02T10:01:35.270Z,6.13
2023-06-02T10:04:06.222Z,6.15
2023-06-02T10:06:52.472Z,5.93
2023-06-02T10:09:36.514Z,6.53
2023-06-02T10:12:30.486Z,5.40
2023-06-02T10:15:27.532Z,5.90
2023-06-02T10:18:12.449Z,5.65
2023-06-02T10:20:47.084Z,6.22
2023-06-02T10:23:32.524Z,6.03
2023-06-02T10:26:30.445Z,5.85
2023-06-02T10:29:04.494Z,6.07
2023-06-02T10:31:37.320Z,6.15
2023-06-02T10:34:07.246Z,6.05
2023-06-02T10:37:07.181Z,5.55
2023-06-02T10:39:55.243Z,5.90
2023-06-02T10:42:27.223Z,5.60
2023-06-02T10:45:42.551Z,5.95
2023-06-02T10:48:45.920Z,5.45
2023-06-02T10:51:16.103Z,5.60
2023-06-02T10:54:16.484Z,5.43
2023-06-02T10:56:48.482Z,5.43
2023-06-02T10:59:36.084Z,4.93
2023-06-02T11:02:07.032Z,5.28
2023-06-02T11:04:44.326Z,5.20
2023-06-02T11:07:20.293Z,5.45
2023-06-02T11:09:52.453Z,5.28
2023-06-02T11:12:23.392Z,5.35
2023-06-02T11:15:21.072Z,5.20
2023-06-02T11:17:51.560Z,5.30
2023-06-02T11:20:34.952Z,5.80
2023-06-02T11:23:08.394Z,4.82
2023-06-02T11:25:38.310Z,4.55
2023-06-02T11:28:08.442Z,4.97
2023-06-02T11:30:39.815Z,4.68
2023-06-02T11:33:09.877Z,4.25
2023-06-02T11:35:47.666Z,4.85
2023-06-02T11:38:18.029Z,4.82
2023-06-02T11:40:48.031Z,4.75
2023-06-02T11:43:24.180Z,4.72
2023-06-02T11:45:54.270Z,4.65
2023-06-02T11:48:27.265Z,5.55
2023-06-02T11:50:59.849Z,5.57
2023-06-02T11:53:29.794Z,5.40
2023-06-02T11:55:59.873Z,4.88
2023-06-02T11:58:31.547Z,4.55
2023-06-02T12:01:12.267Z,4.68
2023-06-02T12:03:42.387Z,4.80
2023-06-02T12:06:16.530Z,4.82
2023-06-02T12:08:47.586Z,5.18
2023-06-02T12:11:18.763Z,5.05
2023-06-02T12:14:00.329Z,4.75
2023-06-02T12:16:30.838Z,4.80
2023-06-02T12:19:16.587Z,4.80
2023-06-02T12:21:50.720Z,4.80
2023-06-02T12:27:03.177Z,4.20
2023-06-02T12:29:33.168Z,4.32
2023-06-02T12:32:04.331Z,4.38
2023-06-02T12:34:34.552Z,4.22
2023-06-02T12:37:08.307Z,3.97
2023-06-02T12:39:38.220Z,4.00
2023-06-02T12:42:10.678Z,4.80
2023-06-02T12:44:40.609Z,3.95
2023-06-02T12:47:10.694Z,4.03
2023-06-02T12:49:41.399Z,4.53
2023-06-02T12:52:13.838Z,3.97
2023-06-02T12:54:43.734Z,4.00
2023-06-02T12:57:13.696Z,4.35
2023-06-02T12:59:43.592Z,4.40
2023-06-02T13:02:13.560Z,4.28
2023-06-02T13:04:43.513Z,4.25
2023-06-02T13:07:16.162Z,4.10
2023-06-02T13:09:46.176Z,4.18
2023-06-02T13:12:16.102Z,3.88
2023-06-02T13:14:46.118Z,3.85
2023-06-02T13:17:16.675Z,4.13
2023-06-02T13:19:47.887Z,4.18
2023-06-02T13:22:20.566Z,3.97
2023-06-02T13:24:50.612Z,4.13
2023-06-02T13:27:27.085Z,4.15
2023-06-02T13:30:01.017Z,3.92
2023-06-02T13:32:30.956Z,3.90
2023-06-02T13:35:01.626Z,3.63
2023-06-02T13:37:35.143Z,3.92
2023-06-02T13:40:06.519Z,4.32
2023-06-02T13:42:37.227Z,4.30
2023-06-02T13:45:08.446Z,3.88
2023-06-02T13:47:38.638Z,3.80
2023-06-02T13:50:09.561Z,4.15
2023-06-02T13:52:42.093Z,3.83
2023-06-02T13:55:13.248Z,3.83
2023-06-02T13:57:43.433Z,3.90
2023-06-02T14:00:14.746Z,5.60
2023-06-02T14:02:44.725Z,3.80
2023-06-02T14:05:14.737Z,4.13
2023-06-02T14:07:47.276Z,3.97
2023-06-02T14:10:18.166Z,3.97
2023-06-02T14:12:48.156Z,4.00
2023-06-02T14:15:18.340Z,3.63
2023-06-02T14:17:48.333Z,3.60
2023-06-02T14:20:20.137Z,4.05
2023-06-02T14:22:52.753Z,4.07
2023-06-02T14:25:22.663Z,3.90
2023-06-02T14:27:52.581Z,4.10
2023-06-02T14:30:22.499Z,4.20
2023-06-02T14:32:52.446Z,3.80
2023-06-02T14:35:22.701Z,3.92
2023-06-02T14:37:55.253Z,3.83
2023-06-02T14:40:25.313Z,3.80
2023-06-02T14:42:55.190Z,3.88
2023-06-02T14:45:25.117Z,3.85
2023-06-02T14:47:56.449Z,3.95
2023-06-02T14:50:27.228Z,4.00
2023-06-02T14:52:59.965Z,3.90
2023-06-02T14:55:30.134Z,3.88
2023-06-02T14:58:00.199Z,3.78
2023-06-02T15:00:31.751Z,3.78
2023-06-02T15:03:01.948Z,3.92
2023-06-02T15:05:31.978Z,4.15
2023-06-02T15:08:05.024Z,3.42
2023-06-02T15:10:34.968Z,3.70
2023-06-02T15:13:04.885Z,3.80
2023-06-02T15:15:34.798Z,3.90
2023-06-02T15:18:04.810Z,4.03
2023-06-02T15:20:34.801Z,3.42
2023-06-02T15:23:07.333Z,3.75
2023-06-02T15:25:38.336Z,3.97
2023-06-02T15:28:08.270Z,4.18
2023-06-02T15:30:38.443Z,3.78
2023-06-02T15:33:08.508Z,3.83
2023-06-02T15:35:38.506Z,3.67
2023-06-02T15:38:11.025Z,4.13
2023-06-02T15:40:41.053Z,3.67
2023-06-02T15:43:10.929Z,4.43
2023-06-02T15:45:40.816Z,3.78
2023-06-02T15:48:10.892Z,3.58
2023-06-02T15:50:41.538Z,3.55
2023-06-02T15:53:13.981Z,3.60
2023-06-02T15:55:44.846Z,3.45
2023-06-02T15:58:15.137Z,3.60
2023-06-02T16:00:45.011Z,3.40
2023-06-02T16:03:14.870Z,3.80
2023-06-02T16:05:44.909Z,3.75
2023-06-02T16:08:17.481Z,3.55
2023-06-02T16:10:47.369Z,3.42
2023-06-02T16:13:17.267Z,3.08
2023-06-02T16:15:47.741Z,3.47
2023-06-02T16:18:17.797Z,2.90
2023-06-02T16:20:47.665Z,3.50
2023-06-02T16:23:20.168Z,3.03
2023-06-02T16:25:50.228Z,3.30
2023-06-02T16:28:20.225Z,3.65
2023-06-02T16:30:50.166Z,3.28
2023-06-02T16:33:20.117Z,3.28
2023-06-02T16:35:50.100Z,3.20
2023-06-02T16:38:22.594Z,3.25
2023-06-02T16:40:52.689Z,3.50
2023-06-02T16:43:22.863Z,2.65
2023-06-02T16:45:53.222Z,3.08
2023-06-02T16:48:23.359Z,3.03
2023-06-02T16:50:53.265Z,3.85
2023-06-02T16:53:28.776Z,3.90
2023-06-02T16:55:59.447Z,3.13
2023-06-02T16:58:30.132Z,3.35
2023-06-02T17:01:00.383Z,2.90
2023-06-02T17:03:30.583Z,3.47
2023-06-02T17:06:00.522Z,3.30
2023-06-02T17:08:33.140Z,3.33
2023-06-02T17:11:03.434Z,3.05
2023-06-02T17:13:34.211Z,3.17
2023-06-02T17:16:04.539Z,6.20
2023-06-02T17:18:34.460Z,5.10
2023-06-02T17:21:04.707Z,3.10
2023-06-02T17:23:37.315Z,3.28
2023-06-02T17:26:07.342Z,3.22
2023-06-02T17:28:37.522Z,3.15
2023-06-02T17:31:08.561Z,3.28
2023-06-02T17:33:38.716Z,3.40
2023-06-02T17:36:09.432Z,3.35
2023-06-02T17:38:42.062Z,3.17
2023-06-02T17:41:14.116Z,3.00
2023-06-02T17:43:44.117Z,3.17
2023-06-02T17:46:14.013Z,3.38
2023-06-02T17:48:45.602Z,3.45
2023-06-02T17:51:16.357Z,3.15
2023-06-02T17:53:48.820Z,3.00
2023-06-02T17:56:18.795Z,3.28
2023-06-02T17:58:48.711Z,3.38
2023-06-02T18:01:18.720Z,3.30
2023-06-02T18:03:48.791Z,3.28
2023-06-02T18:06:18.859Z,4.05
2023-06-02T18:08:51.412Z,3.45
2023-06-02T18:11:21.803Z,3.08
2023-06-02T18:13:51.726Z,3.03
2023-06-02T18:16:21.665Z,3.30
2023-06-02T18:18:51.795Z,3.60
2023-06-02T18:21:21.796Z,3.50
2023-06-02T18:23:57.452Z,3.88
2023-06-02T18:26:28.720Z,3.85
2023-06-02T18:28:58.662Z,4.07
2023-06-02T18:31:29.398Z,4.10
2023-06-02T18:33:59.508Z,4.00
2023-06-02T18:36:29.577Z,4.30
2023-06-02T18:39:02.094Z,3.92
2023-06-02T18:41:33.855Z,4.05
2023-06-02T18:44:03.999Z,4.05
2023-06-02T18:46:35.569Z,4.13
2023-06-02T18:49:05.582Z,3.90
2023-06-02T18:51:36.186Z,4.15
2023-06-02T18:54:08.711Z,4.15
2023-06-02T18:56:39.003Z,4.00
2023-06-02T18:59:08.912Z,3.67
2023-06-02T19:01:38.902Z,3.83
2023-06-02T19:04:13.244Z,3.58
2023-06-02T19:06:43.418Z,4.07
2023-06-02T19:09:15.914Z,4.22
2023-06-02T19:11:46.519Z,4.28
2023-06-02T19:14:16.450Z,4.63
2023-06-02T19:16:46.550Z,4.20
2023-06-02T19:19:18.299Z,4.32
2023-06-02T19:21:51.035Z,5.68
2023-06-02T19:24:24.861Z,4.28
2023-06-02T19:26:55.028Z,4.22
2023-06-02T19:29:25.017Z,3.95
2023-06-02T19:31:55.105Z,4.20
2023-06-02T19:34:25.107Z,4.15
2023-06-02T19:36:55.169Z,3.85
2023-06-02T19:39:27.672Z,4.10
2023-06-02T19:41:57.626Z,3.95
2023-06-02T19:44:27.656Z,3.60
2023-06-02T19:46:59.458Z,3.45
2023-06-02T19:49:29.550Z,4.53
2023-06-02T19:52:00.081Z,3.92
2023-06-02T19:54:33.675Z,3.75
2023-06-02T19:57:03.970Z,4.00
2023-06-02T19:59:34.111Z,3.47
2023-06-02T20:02:04.021Z,3.83
2023-06-02T20:04:36.184Z,4.00
2023-06-02T20:07:08.324Z,3.50
2023-06-02T20:09:40.844Z,3.70
2023-06-02T20:12:11.305Z,3.70
2023-06-02T20:14:41.299Z,3.53
2023-06-02T20:17:11.284Z,3.78
2023-06-02T20:19:42.829Z,4.13
2023-06-02T20:22:13.340Z,3.80
2023-06-02T20:24:45.882Z,3.78
2023-06-02T20:27:17.425Z,3.90
2023-06-02T20:29:47.720Z,3.67
2023-06-02T20:32:17.851Z,3.95
2023-06-02T20:34:47.781Z,4.00
2023-06-02T20:37:17.753Z,4.15
2023-06-02T20:39:50.250Z,3.70
2023-06-02T20:42:20.206Z,3.53
2023-06-02T20:44:50.240Z,3.75
2023-06-02T20:47:20.158Z,3.63
2023-06-02T20:49:50.256Z,4.00
2023-06-02T20:52:20.195Z,3.22
2023-06-02T20:54:53.344Z,4.32
2023-06-02T20:57:23.199Z,3.50
2023-06-02T20:59:53.172Z,3.95
2023-06-02T21:02:24.625Z,3.97
2023-06-02T21:04:54.597Z,3.38
2023-06-02T21:07:26.119Z,3.75
2023-06-02T21:09:58.614Z,4.32
2023-06-02T21:12:28.574Z,3.80
2023-06-02T21:14:58.536Z,4.15
2023-06-02T21:17:28.537Z,4.03
2023-06-02T21:19:58.417Z,3.88
2023-06-02T21:22:29.242Z,4.18
2023-06-02T21:25:02.896Z,3.90
2023-06-02T21:27:32.841Z,3.80
2023-06-02T21:30:02.808Z,3.65
2023-06-02T21:32:32.913Z,3.80
2023-06-02T21:35:03.100Z,4.25
2023-06-02T21:37:33.026Z,3.60
2023-06-02T21:40:05.568Z,3.67
2023-06-02T21:42:35.716Z,4.28
2023-06-02T21:45:05.737Z,3.67
2023-06-02T21:47:35.640Z,3.78
2023-06-02T21:50:05.798Z,3.60
2023-06-02T21:52:35.687Z,3.47
2023-06-02T21:55:08.989Z,4.13
2023-06-02T21:57:38.907Z,4.07
2023-06-02T22:00:13.858Z,4.10
2023-06-02T22:02:44.746Z,4.00
2023-06-02T22:05:16.882Z,4.15
2023-06-02T22:07:46.987Z,3.45
2023-06-02T22:10:19.684Z,3.92
2023-06-02T22:12:50.899Z,4.38
2023-06-02T22:15:22.094Z,4.18
2023-06-02T22:17:52.117Z,4.05
2023-06-02T22:20:22.271Z,4.22
2023-06-02T22:22:52.195Z,4.63
2023-06-02T22:25:24.711Z,3.60
2023-06-02T22:27:54.735Z,4.40
2023-06-02T22:30:24.671Z,3.70
2023-06-02T22:32:54.627Z,3.42
2023-06-02T22:35:24.561Z,4.05
2023-06-02T22:37:54.508Z,4.03
2023-06-02T22:40:27.051Z,4.47
2023-06-02T22:42:56.944Z,4.25
2023-06-02T22:45:26.909Z,4.47
2023-06-02T22:47:56.799Z,3.78
2023-06-02T22:50:27.325Z,4.05
2023-06-02T22:52:57.259Z,4.15
2023-06-02T22:55:29.745Z,3.80
2023-06-02T22:57:59.627Z,3.90
2023-06-02T23:00:29.530Z,4.13
2023-06-02T23:02:59.526Z,4.20
2023-06-02T23:05:29.467Z,3.80
2023-06-02T23:07:59.386Z,4.57
2023-06-02T23:10:31.793Z,3.55
2023-06-02T23:13:01.770Z,3.70
2023-06-02T23:15:31.705Z,3.72
2023-06-02T23:18:01.684Z,4.78
2023-06-02T23:20:31.569Z,3.50
2023-06-02T23:23:01.496Z,3.72
2023-06-02T23:25:34.026Z,4.07
2023-06-02T23:28:03.960Z,4.05
2023-06-02T23:30:33.841Z,4.10
2023-06-02T23:33:04.542Z,4.28
2023-06-02T23:35:34.725Z,4.38
2023-06-02T23:38:04.834Z,4.43
2023-06-02T23:40:37.713Z,3.88
2023-06-02T23:43:09.024Z,4.07
2023-06-02T23:45:38.922Z,4.75
2023-06-02T23:48:09.555Z,3.67
2023-06-02T23:50:39.542Z,4.05
2023-06-02T23:53:09.484Z,3.92
2023-06-02T23:55:42.054Z,3.40
2023-06-02T23:58:11.993Z,3.88
